Terminal Aerodrome Forecast
Issued by NWS

Current Version | Previous Version | Graphics & Text | Print | Product List | Glossary On
Versions: 1 2 3 4 5 6 7 8 9 10 11 12 13 14 15 16 17 18 19 20 21 22 23 24 25 26 27 28 29
000
FTUS41 KILN 200700 AAA
TAFLUK
TAF AMD
KLUK 200729Z 2007/2106 22005KT 4SM BR BKN100
     FM201000 22005KT 2SM BR BKN015
     FM201400 27007KT P6SM SCT028
     FM201700 29010KT P6SM SCT040
     FM210000 27006KT P6SM SCT100 BKN250=

USA.gov is the U.S. government's official web portal to all federal, state and local government web resources and services.